sensor_id;sensor_type;location;lat;lon;timestamp;P1;durP1;ratioP1;P2;durP2;ratioP2
65271;SDS011;51868;48.812;8.198;2023-02-08T00:01:07;17.17;;;9.30;;
65271;SDS011;51868;48.812;8.198;2023-02-08T00:03:35;17.50;;;9.60;;
65271;SDS011;51868;48.812;8.198;2023-02-08T00:06:04;16.52;;;8.73;;
65271;SDS011;51868;48.812;8.198;2023-02-08T00:08:33;16.55;;;9.20;;
65271;SDS011;51868;48.812;8.198;2023-02-08T00:11:01;19.98;;;9.32;;
65271;SDS011;51868;48.812;8.198;2023-02-08T00:13:30;17.35;;;8.90;;
65271;SDS011;51868;48.812;8.198;2023-02-08T00:15:59;15.77;;;8.77;;
65271;SDS011;51868;48.812;8.198;2023-02-08T00:18:27;17.02;;;8.10;;
65271;SDS011;51868;48.812;8.198;2023-02-08T00:20:55;18.10;;;8.48;;
65271;SDS011;51868;48.812;8.198;2023-02-08T00:23:23;17.83;;;8.55;;
65271;SDS011;51868;48.812;8.198;2023-02-08T00:25:51;16.27;;;8.30;;
65271;SDS011;51868;48.812;8.198;2023-02-08T00:28:18;15.55;;;9.20;;
65271;SDS011;51868;48.812;8.198;2023-02-08T00:30:48;16.85;;;8.93;;
65271;SDS011;51868;48.812;8.198;2023-02-08T00:33:15;16.98;;;8.63;;
65271;SDS011;51868;48.812;8.198;2023-02-08T00:35:43;18.33;;;9.77;;
65271;SDS011;51868;48.812;8.198;2023-02-08T00:38:11;16.98;;;9.00;;
65271;SDS011;51868;48.812;8.198;2023-02-08T00:40:39;19.48;;;9.73;;
65271;SDS011;51868;48.812;8.198;2023-02-08T00:43:07;17.02;;;8.80;;
65271;SDS011;51868;48.812;8.198;2023-02-08T00:45:35;16.42;;;8.85;;
65271;SDS011;51868;48.812;8.198;2023-02-08T00:48:04;16.70;;;8.60;;
65271;SDS011;51868;48.812;8.198;2023-02-08T00:50:31;17.15;;;9.57;;
65271;SDS011;51868;48.812;8.198;2023-02-08T00:52:59;11.95;;;7.28;;
65271;SDS011;51868;48.812;8.198;2023-02-08T00:55:27;16.88;;;8.50;;
65271;SDS011;51868;48.812;8.198;2023-02-08T00:57:54;17.48;;;8.27;;
65271;SDS011;51868;48.812;8.198;2023-02-08T01:00:22;15.55;;;7.95;;
65271;SDS011;51868;48.812;8.198;2023-02-08T01:02:50;12.75;;;7.18;;
65271;SDS011;51868;48.812;8.198;2023-02-08T01:05:19;15.32;;;7.85;;
65271;SDS011;51868;48.812;8.198;2023-02-08T01:07:47;15.85;;;8.75;;
65271;SDS011;51868;48.812;8.198;2023-02-08T01:10:14;18.17;;;7.97;;
65271;SDS011;51868;48.812;8.198;2023-02-08T01:12:42;11.45;;;6.60;;
65271;SDS011;51868;48.812;8.198;2023-02-08T01:15:10;12.02;;;7.43;;
65271;SDS011;51868;48.812;8.198;2023-02-08T01:17:37;13.48;;;8.25;;
65271;SDS011;51868;48.812;8.198;2023-02-08T01:20:05;14.50;;;8.07;;
65271;SDS011;51868;48.812;8.198;2023-02-08T01:22:35;14.00;;;7.90;;
65271;SDS011;51868;48.812;8.198;2023-02-08T01:25:03;13.35;;;7.03;;
65271;SDS011;51868;48.812;8.198;2023-02-08T01:27:31;13.32;;;7.22;;
65271;SDS011;51868;48.812;8.198;2023-02-08T01:29:58;15.52;;;8.07;;
65271;SDS011;51868;48.812;8.198;2023-02-08T01:32:26;13.18;;;7.50;;
65271;SDS011;51868;48.812;8.198;2023-02-08T01:34:53;13.60;;;6.90;;
65271;SDS011;51868;48.812;8.198;2023-02-08T01:37:21;13.15;;;7.05;;
65271;SDS011;51868;48.812;8.198;2023-02-08T01:39:50;18.85;;;7.97;;
65271;SDS011;51868;48.812;8.198;2023-02-08T01:42:18;13.57;;;8.13;;
65271;SDS011;51868;48.812;8.198;2023-02-08T01:47:51;12.90;;;7.07;;
65271;SDS011;51868;48.812;8.198;2023-02-08T01:50:21;12.65;;;7.32;;
65271;SDS011;51868;48.812;8.198;2023-02-08T01:52:56;14.63;;;7.22;;
65271;SDS011;51868;48.812;8.198;2023-02-08T01:55:26;12.80;;;7.07;;
65271;SDS011;51868;48.812;8.198;2023-02-08T01:57:58;15.65;;;8.00;;
65271;SDS011;51868;48.812;8.198;2023-02-08T02:00:29;13.77;;;6.85;;
65271;SDS011;51868;48.812;8.198;2023-02-08T02:02:58;13.30;;;7.75;;
65271;SDS011;51868;48.812;8.198;2023-02-08T02:05:28;17.13;;;7.70;;
65271;SDS011;51868;48.812;8.198;2023-02-08T02:10:30;12.07;;;7.28;;
65271;SDS011;51868;48.812;8.198;2023-02-08T02:13:01;13.82;;;7.45;;
65271;SDS011;51868;48.812;8.198;2023-02-08T02:15:30;14.98;;;7.47;;
65271;SDS011;51868;48.812;8.198;2023-02-08T02:17:58;13.82;;;6.88;;
65271;SDS011;51868;48.812;8.198;2023-02-08T02:20:30;14.27;;;6.80;;
65271;SDS011;51868;48.812;8.198;2023-02-08T02:23:11;14.70;;;7.00;;
65271;SDS011;51868;48.812;8.198;2023-02-08T02:32:07;15.45;;;8.85;;
65271;SDS011;51868;48.812;8.198;2023-02-08T02:34:45;12.68;;;7.63;;
65271;SDS011;51868;48.812;8.198;2023-02-08T02:37:24;12.27;;;7.30;;
65271;SDS011;51868;48.812;8.198;2023-02-08T02:40:09;14.07;;;7.97;;
65271;SDS011;51868;48.812;8.198;2023-02-08T02:42:42;13.70;;;8.00;;
65271;SDS011;51868;48.812;8.198;2023-02-08T02:45:38;12.75;;;7.63;;
65271;SDS011;51868;48.812;8.198;2023-02-08T02:48:16;12.65;;;6.30;;
65271;SDS011;51868;48.812;8.198;2023-02-08T02:50:50;15.35;;;7.88;;
65271;SDS011;51868;48.812;8.198;2023-02-08T02:55:53;12.38;;;7.03;;
65271;SDS011;51868;48.812;8.198;2023-02-08T02:58:24;13.32;;;7.38;;
65271;SDS011;51868;48.812;8.198;2023-02-08T03:00:54;12.00;;;6.60;;
65271;SDS011;51868;48.812;8.198;2023-02-08T03:03:25;14.15;;;7.25;;
65271;SDS011;51868;48.812;8.198;2023-02-08T03:05:56;12.07;;;6.88;;
65271;SDS011;51868;48.812;8.198;2023-02-08T03:08:39;13.20;;;6.70;;
65271;SDS011;51868;48.812;8.198;2023-02-08T03:11:27;11.13;;;5.97;;
65271;SDS011;51868;48.812;8.198;2023-02-08T03:16:56;11.05;;;6.15;;
65271;SDS011;51868;48.812;8.198;2023-02-08T03:19:35;13.50;;;6.28;;
65271;SDS011;51868;48.812;8.198;2023-02-08T03:22:09;10.43;;;6.30;;
65271;SDS011;51868;48.812;8.198;2023-02-08T03:24:42;10.73;;;6.50;;
65271;SDS011;51868;48.812;8.198;2023-02-08T03:27:17;10.68;;;5.57;;
65271;SDS011;51868;48.812;8.198;2023-02-08T03:29:54;11.02;;;6.55;;
65271;SDS011;51868;48.812;8.198;2023-02-08T03:32:29;12.35;;;6.70;;
65271;SDS011;51868;48.812;8.198;2023-02-08T03:35:06;12.73;;;7.00;;
65271;SDS011;51868;48.812;8.198;2023-02-08T03:37:39;10.60;;;6.35;;
65271;SDS011;51868;48.812;8.198;2023-02-08T03:40:11;14.13;;;6.40;;
65271;SDS011;51868;48.812;8.198;2023-02-08T03:42:44;12.60;;;6.53;;
65271;SDS011;51868;48.812;8.198;2023-02-08T03:45:15;16.50;;;6.95;;
65271;SDS011;51868;48.812;8.198;2023-02-08T03:47:46;14.73;;;7.43;;
65271;SDS011;51868;48.812;8.198;2023-02-08T03:50:18;13.23;;;6.68;;
65271;SDS011;51868;48.812;8.198;2023-02-08T03:52:48;11.57;;;6.53;;
65271;SDS011;51868;48.812;8.198;2023-02-08T03:55:19;12.30;;;6.30;;
65271;SDS011;51868;48.812;8.198;2023-02-08T03:57:50;12.98;;;7.18;;
65271;SDS011;51868;48.812;8.198;2023-02-08T04:00:21;12.57;;;6.55;;
65271;SDS011;51868;48.812;8.198;2023-02-08T04:02:51;19.95;;;7.63;;
65271;SDS011;51868;48.812;8.198;2023-02-08T04:05:24;15.05;;;7.22;;
65271;SDS011;51868;48.812;8.198;2023-02-08T04:07:53;12.00;;;6.78;;
65271;SDS011;51868;48.812;8.198;2023-02-08T04:10:21;11.80;;;6.65;;
65271;SDS011;51868;48.812;8.198;2023-02-08T04:12:49;12.13;;;6.65;;
65271;SDS011;51868;48.812;8.198;2023-02-08T04:15:16;15.63;;;7.10;;
65271;SDS011;51868;48.812;8.198;2023-02-08T04:17:44;16.40;;;7.70;;
65271;SDS011;51868;48.812;8.198;2023-02-08T04:20:12;14.88;;;8.05;;
65271;SDS011;51868;48.812;8.198;2023-02-08T04:22:41;14.38;;;8.00;;
65271;SDS011;51868;48.812;8.198;2023-02-08T04:25:09;13.70;;;7.38;;
65271;SDS011;51868;48.812;8.198;2023-02-08T04:27:37;11.43;;;6.93;;
65271;SDS011;51868;48.812;8.198;2023-02-08T04:30:04;14.90;;;8.00;;
65271;SDS011;51868;48.812;8.198;2023-02-08T04:32:32;13.32;;;7.47;;
65271;SDS011;51868;48.812;8.198;2023-02-08T04:35:00;13.50;;;7.38;;
65271;SDS011;51868;48.812;8.198;2023-02-08T04:37:28;12.30;;;6.78;;
65271;SDS011;51868;48.812;8.198;2023-02-08T04:39:57;18.10;;;7.95;;
65271;SDS011;51868;48.812;8.198;2023-02-08T04:42:24;13.20;;;6.90;;
65271;SDS011;51868;48.812;8.198;2023-02-08T04:44:52;15.60;;;7.55;;
65271;SDS011;51868;48.812;8.198;2023-02-08T04:47:20;13.48;;;7.72;;
65271;SDS011;51868;48.812;8.198;2023-02-08T04:49:48;15.73;;;7.82;;
65271;SDS011;51868;48.812;8.198;2023-02-08T04:52:15;11.10;;;7.15;;
65271;SDS011;51868;48.812;8.198;2023-02-08T04:54:43;14.65;;;8.13;;
65271;SDS011;51868;48.812;8.198;2023-02-08T04:57:12;18.30;;;7.85;;
65271;SDS011;51868;48.812;8.198;2023-02-08T04:59:41;14.35;;;6.93;;
65271;SDS011;51868;48.812;8.198;2023-02-08T05:02:08;16.55;;;6.88;;
65271;SDS011;51868;48.812;8.198;2023-02-08T05:04:36;13.35;;;7.25;;
65271;SDS011;51868;48.812;8.198;2023-02-08T05:07:04;15.45;;;7.93;;
65271;SDS011;51868;48.812;8.198;2023-02-08T05:09:32;15.18;;;8.60;;
65271;SDS011;51868;48.812;8.198;2023-02-08T05:11:59;14.70;;;7.70;;
65271;SDS011;51868;48.812;8.198;2023-02-08T05:14:28;16.38;;;8.00;;
65271;SDS011;51868;48.812;8.198;2023-02-08T05:16:56;15.98;;;8.23;;
65271;SDS011;51868;48.812;8.198;2023-02-08T05:19:24;17.25;;;8.75;;
65271;SDS011;51868;48.812;8.198;2023-02-08T05:21:52;21.83;;;11.00;;
65271;SDS011;51868;48.812;8.198;2023-02-08T05:24:20;19.00;;;8.05;;
65271;SDS011;51868;48.812;8.198;2023-02-08T05:26:48;16.98;;;9.63;;
65271;SDS011;51868;48.812;8.198;2023-02-08T05:29:15;19.17;;;10.52;;
65271;SDS011;51868;48.812;8.198;2023-02-08T05:31:44;16.63;;;8.27;;
65271;SDS011;51868;48.812;8.198;2023-02-08T05:34:12;14.38;;;8.02;;
65271;SDS011;51868;48.812;8.198;2023-02-08T05:36:40;18.02;;;8.90;;
65271;SDS011;51868;48.812;8.198;2023-02-08T05:39:08;17.95;;;8.57;;
65271;SDS011;51868;48.812;8.198;2023-02-08T05:41:35;17.27;;;8.70;;
65271;SDS011;51868;48.812;8.198;2023-02-08T05:44:03;17.75;;;8.82;;
65271;SDS011;51868;48.812;8.198;2023-02-08T05:46:31;17.35;;;8.43;;
65271;SDS011;51868;48.812;8.198;2023-02-08T05:49:03;16.05;;;8.25;;
65271;SDS011;51868;48.812;8.198;2023-02-08T05:51:31;16.70;;;9.55;;
65271;SDS011;51868;48.812;8.198;2023-02-08T05:53:59;16.65;;;9.80;;
65271;SDS011;51868;48.812;8.198;2023-02-08T05:56:26;17.48;;;9.35;;
65271;SDS011;51868;48.812;8.198;2023-02-08T05:58:54;19.02;;;9.75;;
65271;SDS011;51868;48.812;8.198;2023-02-08T06:01:22;18.80;;;8.80;;
65271;SDS011;51868;48.812;8.198;2023-02-08T06:03:50;17.88;;;9.75;;
65271;SDS011;51868;48.812;8.198;2023-02-08T06:06:19;16.05;;;8.98;;
65271;SDS011;51868;48.812;8.198;2023-02-08T06:08:47;19.52;;;10.45;;
65271;SDS011;51868;48.812;8.198;2023-02-08T06:11:14;20.40;;;12.80;;
65271;SDS011;51868;48.812;8.198;2023-02-08T06:13:44;15.50;;;8.70;;
65271;SDS011;51868;48.812;8.198;2023-02-08T06:16:12;18.63;;;8.75;;
65271;SDS011;51868;48.812;8.198;2023-02-08T06:18:42;16.70;;;9.50;;
65271;SDS011;51868;48.812;8.198;2023-02-08T06:21:10;22.40;;;11.25;;
65271;SDS011;51868;48.812;8.198;2023-02-08T06:23:39;17.38;;;9.50;;
65271;SDS011;51868;48.812;8.198;2023-02-08T06:26:07;16.20;;;8.43;;
65271;SDS011;51868;48.812;8.198;2023-02-08T06:28:35;17.65;;;9.07;;
65271;SDS011;51868;48.812;8.198;2023-02-08T06:31:03;16.50;;;9.63;;
65271;SDS011;51868;48.812;8.198;2023-02-08T06:33:30;18.10;;;9.20;;
65271;SDS011;51868;48.812;8.198;2023-02-08T06:35:58;18.88;;;8.35;;
65271;SDS011;51868;48.812;8.198;2023-02-08T06:38:26;21.50;;;9.48;;
65271;SDS011;51868;48.812;8.198;2023-02-08T06:40:55;19.83;;;9.50;;
65271;SDS011;51868;48.812;8.198;2023-02-08T06:43:22;17.80;;;9.00;;
65271;SDS011;51868;48.812;8.198;2023-02-08T06:45:50;15.48;;;8.65;;
65271;SDS011;51868;48.812;8.198;2023-02-08T06:48:18;16.05;;;9.15;;
65271;SDS011;51868;48.812;8.198;2023-02-08T06:50:46;21.42;;;10.07;;
65271;SDS011;51868;48.812;8.198;2023-02-08T06:53:13;17.02;;;9.65;;
65271;SDS011;51868;48.812;8.198;2023-02-08T06:55:41;19.60;;;10.15;;
65271;SDS011;51868;48.812;8.198;2023-02-08T06:58:10;18.05;;;9.63;;
65271;SDS011;51868;48.812;8.198;2023-02-08T07:00:38;22.60;;;10.05;;
65271;SDS011;51868;48.812;8.198;2023-02-08T07:03:06;18.98;;;9.40;;
65271;SDS011;51868;48.812;8.198;2023-02-08T07:05:34;16.77;;;9.07;;
65271;SDS011;51868;48.812;8.198;2023-02-08T07:08:02;19.48;;;10.07;;
65271;SDS011;51868;48.812;8.198;2023-02-08T07:10:30;18.55;;;9.68;;
65271;SDS011;51868;48.812;8.198;2023-02-08T07:12:57;19.70;;;10.10;;
65271;SDS011;51868;48.812;8.198;2023-02-08T07:15:26;19.15;;;10.07;;
65271;SDS011;51868;48.812;8.198;2023-02-08T07:17:56;18.30;;;10.13;;
65271;SDS011;51868;48.812;8.198;2023-02-08T07:20:23;19.38;;;10.25;;
65271;SDS011;51868;48.812;8.198;2023-02-08T07:22:51;17.05;;;9.75;;
65271;SDS011;51868;48.812;8.198;2023-02-08T07:25:19;21.17;;;9.43;;
65271;SDS011;51868;48.812;8.198;2023-02-08T07:27:47;19.70;;;10.40;;
65271;SDS011;51868;48.812;8.198;2023-02-08T07:30:15;17.80;;;9.82;;
65271;SDS011;51868;48.812;8.198;2023-02-08T07:32:44;21.08;;;9.88;;
65271;SDS011;51868;48.812;8.198;2023-02-08T07:35:12;20.75;;;10.20;;
65271;SDS011;51868;48.812;8.198;2023-02-08T07:37:39;17.17;;;9.48;;
65271;SDS011;51868;48.812;8.198;2023-02-08T07:40:09;20.85;;;10.18;;
65271;SDS011;51868;48.812;8.198;2023-02-08T07:42:37;19.92;;;8.95;;
65271;SDS011;51868;48.812;8.198;2023-02-08T07:45:05;19.83;;;9.75;;
65271;SDS011;51868;48.812;8.198;2023-02-08T07:47:33;22.40;;;9.90;;
65271;SDS011;51868;48.812;8.198;2023-02-08T07:50:02;22.08;;;9.45;;
65271;SDS011;51868;48.812;8.198;2023-02-08T07:52:30;17.63;;;9.57;;
65271;SDS011;51868;48.812;8.198;2023-02-08T07:54:57;21.25;;;9.85;;
65271;SDS011;51868;48.812;8.198;2023-02-08T07:57:25;17.10;;;9.18;;
65271;SDS011;51868;48.812;8.198;2023-02-08T07:59:53;20.83;;;10.38;;
65271;SDS011;51868;48.812;8.198;2023-02-08T08:02:20;22.52;;;10.32;;
65271;SDS011;51868;48.812;8.198;2023-02-08T08:04:49;23.73;;;9.48;;
65271;SDS011;51868;48.812;8.198;2023-02-08T08:07:20;19.92;;;9.60;;
65271;SDS011;51868;48.812;8.198;2023-02-08T08:09:48;17.80;;;10.00;;
65271;SDS011;51868;48.812;8.198;2023-02-08T08:12:15;18.67;;;10.25;;
65271;SDS011;51868;48.812;8.198;2023-02-08T08:14:43;19.02;;;10.15;;
65271;SDS011;51868;48.812;8.198;2023-02-08T08:17:11;19.83;;;9.85;;
65271;SDS011;51868;48.812;8.198;2023-02-08T08:19:38;22.20;;;10.50;;
65271;SDS011;51868;48.812;8.198;2023-02-08T08:22:06;18.17;;;10.20;;
65271;SDS011;51868;48.812;8.198;2023-02-08T08:24:35;16.05;;;8.77;;
65271;SDS011;51868;48.812;8.198;2023-02-08T08:27:04;24.35;;;10.15;;
65271;SDS011;51868;48.812;8.198;2023-02-08T08:29:33;19.60;;;10.18;;
65271;SDS011;51868;48.812;8.198;2023-02-08T08:32:01;21.95;;;10.57;;
65271;SDS011;51868;48.812;8.198;2023-02-08T08:34:30;16.70;;;9.45;;
65271;SDS011;51868;48.812;8.198;2023-02-08T08:36:58;19.40;;;9.07;;
65271;SDS011;51868;48.812;8.198;2023-02-08T08:39:27;17.58;;;9.15;;
65271;SDS011;51868;48.812;8.198;2023-02-08T08:41:57;23.13;;;10.13;;
65271;SDS011;51868;48.812;8.198;2023-02-08T08:44:25;53.92;;;24.45;;
65271;SDS011;51868;48.812;8.198;2023-02-08T08:46:53;22.02;;;11.90;;
65271;SDS011;51868;48.812;8.198;2023-02-08T08:49:21;42.58;;;17.88;;
65271;SDS011;51868;48.812;8.198;2023-02-08T08:51:49;24.48;;;12.95;;
65271;SDS011;51868;48.812;8.198;2023-02-08T08:54:17;22.10;;;10.73;;
65271;SDS011;51868;48.812;8.198;2023-02-08T08:56:45;20.27;;;11.02;;
65271;SDS011;51868;48.812;8.198;2023-02-08T08:59:14;20.75;;;10.00;;
65271;SDS011;51868;48.812;8.198;2023-02-08T09:01:42;19.05;;;10.65;;
65271;SDS011;51868;48.812;8.198;2023-02-08T09:04:10;23.15;;;10.60;;
65271;SDS011;51868;48.812;8.198;2023-02-08T09:06:37;21.02;;;10.82;;
65271;SDS011;51868;48.812;8.198;2023-02-08T09:09:05;19.33;;;10.88;;
65271;SDS011;51868;48.812;8.198;2023-02-08T09:11:33;17.02;;;9.93;;
65271;SDS011;51868;48.812;8.198;2023-02-08T09:14:01;15.52;;;9.63;;
65271;SDS011;51868;48.812;8.198;2023-02-08T09:16:31;15.95;;;9.15;;
65271;SDS011;51868;48.812;8.198;2023-02-08T09:18:59;17.80;;;9.05;;
65271;SDS011;51868;48.812;8.198;2023-02-08T09:21:27;16.77;;;9.50;;
65271;SDS011;51868;48.812;8.198;2023-02-08T09:23:55;17.00;;;8.93;;
65271;SDS011;51868;48.812;8.198;2023-02-08T09:26:23;16.73;;;9.70;;
65271;SDS011;51868;48.812;8.198;2023-02-08T09:28:51;18.08;;;8.63;;
65271;SDS011;51868;48.812;8.198;2023-02-08T09:31:20;17.98;;;8.55;;
65271;SDS011;51868;48.812;8.198;2023-02-08T09:33:51;17.25;;;9.10;;
65271;SDS011;51868;48.812;8.198;2023-02-08T09:36:21;18.83;;;9.57;;
65271;SDS011;51868;48.812;8.198;2023-02-08T09:38:52;16.58;;;9.10;;
65271;SDS011;51868;48.812;8.198;2023-02-08T09:41:26;17.48;;;9.65;;
65271;SDS011;51868;48.812;8.198;2023-02-08T09:44:11;16.23;;;9.75;;
65271;SDS011;51868;48.812;8.198;2023-02-08T09:46:46;16.15;;;9.40;;
65271;SDS011;51868;48.812;8.198;2023-02-08T09:49:25;17.63;;;9.55;;
65271;SDS011;51868;48.812;8.198;2023-02-08T09:51:57;17.20;;;10.05;;
65271;SDS011;51868;48.812;8.198;2023-02-08T09:54:29;15.68;;;10.27;;
65271;SDS011;51868;48.812;8.198;2023-02-08T09:57:02;13.35;;;9.10;;
65271;SDS011;51868;48.812;8.198;2023-02-08T09:59:33;16.03;;;8.57;;
65271;SDS011;51868;48.812;8.198;2023-02-08T10:02:08;16.27;;;9.13;;
65271;SDS011;51868;48.812;8.198;2023-02-08T10:04:47;21.65;;;8.82;;
65271;SDS011;51868;48.812;8.198;2023-02-08T10:07:23;14.73;;;8.50;;
65271;SDS011;51868;48.812;8.198;2023-02-08T10:09:52;14.35;;;8.27;;
65271;SDS011;51868;48.812;8.198;2023-02-08T10:12:24;13.27;;;8.02;;
65271;SDS011;51868;48.812;8.198;2023-02-08T10:15:04;16.80;;;8.45;;
65271;SDS011;51868;48.812;8.198;2023-02-08T10:17:45;12.55;;;7.38;;
65271;SDS011;51868;48.812;8.198;2023-02-08T10:20:23;16.13;;;9.07;;
65271;SDS011;51868;48.812;8.198;2023-02-08T10:23:02;12.52;;;8.32;;
65271;SDS011;51868;48.812;8.198;2023-02-08T10:25:51;16.67;;;8.93;;
65271;SDS011;51868;48.812;8.198;2023-02-08T10:28:37;16.60;;;8.18;;
65271;SDS011;51868;48.812;8.198;2023-02-08T10:31:15;20.17;;;8.38;;
65271;SDS011;51868;48.812;8.198;2023-02-08T10:33:49;12.93;;;8.38;;
65271;SDS011;51868;48.812;8.198;2023-02-08T10:36:24;15.88;;;8.32;;
65271;SDS011;51868;48.812;8.198;2023-02-08T10:38:55;15.75;;;8.57;;
65271;SDS011;51868;48.812;8.198;2023-02-08T10:41:25;13.25;;;7.75;;
65271;SDS011;51868;48.812;8.198;2023-02-08T10:43:59;15.07;;;8.30;;
65271;SDS011;51868;48.812;8.198;2023-02-08T10:46:34;13.85;;;7.82;;
65271;SDS011;51868;48.812;8.198;2023-02-08T10:49:05;16.73;;;7.80;;
65271;SDS011;51868;48.812;8.198;2023-02-08T10:51:38;12.90;;;7.55;;
65271;SDS011;51868;48.812;8.198;2023-02-08T10:54:08;15.38;;;8.00;;
65271;SDS011;51868;48.812;8.198;2023-02-08T10:56:42;11.40;;;7.35;;
65271;SDS011;51868;48.812;8.198;2023-02-08T10:59:14;16.23;;;8.48;;
65271;SDS011;51868;48.812;8.198;2023-02-08T11:01:45;14.30;;;7.05;;
65271;SDS011;51868;48.812;8.198;2023-02-08T11:04:14;12.65;;;6.78;;
65271;SDS011;51868;48.812;8.198;2023-02-08T11:06:44;13.80;;;7.07;;
65271;SDS011;51868;48.812;8.198;2023-02-08T11:09:20;11.52;;;6.90;;
65271;SDS011;51868;48.812;8.198;2023-02-08T11:11:49;14.10;;;7.28;;
65271;SDS011;51868;48.812;8.198;2023-02-08T11:14:19;13.55;;;7.20;;
65271;SDS011;51868;48.812;8.198;2023-02-08T11:17:03;13.65;;;7.97;;
65271;SDS011;51868;48.812;8.198;2023-02-08T11:19:32;12.52;;;7.45;;
65271;SDS011;51868;48.812;8.198;2023-02-08T11:22:05;14.25;;;7.43;;
65271;SDS011;51868;48.812;8.198;2023-02-08T11:24:34;17.98;;;7.53;;
65271;SDS011;51868;48.812;8.198;2023-02-08T11:27:14;13.90;;;8.43;;
65271;SDS011;51868;48.812;8.198;2023-02-08T11:29:44;14.38;;;7.82;;
65271;SDS011;51868;48.812;8.198;2023-02-08T11:32:15;13.20;;;7.30;;
65271;SDS011;51868;48.812;8.198;2023-02-08T11:34:44;14.90;;;8.05;;
65271;SDS011;51868;48.812;8.198;2023-02-08T11:37:16;12.30;;;7.07;;
65271;SDS011;51868;48.812;8.198;2023-02-08T11:39:48;12.23;;;7.35;;
65271;SDS011;51868;48.812;8.198;2023-02-08T11:42:20;14.20;;;7.77;;
65271;SDS011;51868;48.812;8.198;2023-02-08T11:44:50;14.75;;;7.93;;
65271;SDS011;51868;48.812;8.198;2023-02-08T11:47:22;12.73;;;8.07;;
65271;SDS011;51868;48.812;8.198;2023-02-08T11:49:51;14.18;;;7.70;;
65271;SDS011;51868;48.812;8.198;2023-02-08T11:52:22;13.05;;;6.72;;
65271;SDS011;51868;48.812;8.198;2023-02-08T11:54:52;13.60;;;7.93;;
65271;SDS011;51868;48.812;8.198;2023-02-08T11:57:22;14.23;;;7.50;;
65271;SDS011;51868;48.812;8.198;2023-02-08T12:00:14;11.43;;;6.80;;
65271;SDS011;51868;48.812;8.198;2023-02-08T12:02:45;12.45;;;7.45;;
65271;SDS011;51868;48.812;8.198;2023-02-08T12:05:13;13.45;;;7.32;;
65271;SDS011;51868;48.812;8.198;2023-02-08T12:07:58;11.18;;;7.07;;
65271;SDS011;51868;48.812;8.198;2023-02-08T12:10:40;12.27;;;7.53;;
65271;SDS011;51868;48.812;8.198;2023-02-08T12:13:30;13.10;;;7.63;;
65271;SDS011;51868;48.812;8.198;2023-02-08T12:16:25;12.90;;;7.65;;
65271;SDS011;51868;48.812;8.198;2023-02-08T12:19:11;14.68;;;8.05;;
65271;SDS011;51868;48.812;8.198;2023-02-08T12:22:02;12.40;;;7.80;;
65271;SDS011;51868;48.812;8.198;2023-02-08T12:24:38;12.75;;;7.55;;
65271;SDS011;51868;48.812;8.198;2023-02-08T12:27:19;18.13;;;8.10;;
65271;SDS011;51868;48.812;8.198;2023-02-08T12:32:33;15.85;;;8.57;;
65271;SDS011;51868;48.812;8.198;2023-02-08T12:35:18;16.13;;;8.93;;
65271;SDS011;51868;48.812;8.198;2023-02-08T12:38:15;14.27;;;7.78;;
65271;SDS011;51868;48.812;8.198;2023-02-08T12:41:16;12.13;;;7.57;;
65271;SDS011;51868;48.812;8.198;2023-02-08T12:43:59;15.10;;;8.43;;
65271;SDS011;51868;48.812;8.198;2023-02-08T12:46:49;13.30;;;8.40;;
65271;SDS011;51868;48.812;8.198;2023-02-08T12:49:28;11.52;;;7.90;;
65271;SDS011;51868;48.812;8.198;2023-02-08T12:52:19;12.93;;;7.85;;
65271;SDS011;51868;48.812;8.198;2023-02-08T12:54:54;13.70;;;8.18;;
65271;SDS011;51868;48.812;8.198;2023-02-08T12:57:30;13.18;;;7.68;;
65271;SDS011;51868;48.812;8.198;2023-02-08T13:00:00;15.18;;;7.97;;
65271;SDS011;51868;48.812;8.198;2023-02-08T13:02:34;13.85;;;7.93;;
65271;SDS011;51868;48.812;8.198;2023-02-08T13:05:34;14.35;;;8.02;;
65271;SDS011;51868;48.812;8.198;2023-02-08T13:08:28;11.18;;;7.07;;
65271;SDS011;51868;48.812;8.198;2023-02-08T13:11:19;15.50;;;8.55;;
65271;SDS011;51868;48.812;8.198;2023-02-08T13:14:02;13.43;;;8.65;;
65271;SDS011;51868;48.812;8.198;2023-02-08T13:16:34;14.60;;;8.48;;
65271;SDS011;51868;48.812;8.198;2023-02-08T13:19:17;12.77;;;7.93;;
65271;SDS011;51868;48.812;8.198;2023-02-08T13:21:51;11.93;;;7.72;;
65271;SDS011;51868;48.812;8.198;2023-02-08T13:24:26;14.88;;;8.65;;
65271;SDS011;51868;48.812;8.198;2023-02-08T13:26:58;17.88;;;9.52;;
65271;SDS011;51868;48.812;8.198;2023-02-08T13:29:28;13.38;;;8.82;;
65271;SDS011;51868;48.812;8.198;2023-02-08T13:31:59;12.68;;;9.13;;
65271;SDS011;51868;48.812;8.198;2023-02-08T13:34:32;12.60;;;9.23;;
65271;SDS011;51868;48.812;8.198;2023-02-08T13:37:04;13.00;;;9.55;;
65271;SDS011;51868;48.812;8.198;2023-02-08T13:39:56;13.70;;;9.73;;
65271;SDS011;51868;48.812;8.198;2023-02-08T13:42:28;12.85;;;10.35;;
65271;SDS011;51868;48.812;8.198;2023-02-08T13:45:01;12.80;;;9.68;;
65271;SDS011;51868;48.812;8.198;2023-02-08T13:47:32;14.15;;;9.85;;
65271;SDS011;51868;48.812;8.198;2023-02-08T13:53:12;21.25;;;9.73;;
65271;SDS011;51868;48.812;8.198;2023-02-08T13:55:50;12.57;;;9.80;;
65271;SDS011;51868;48.812;8.198;2023-02-08T14:01:22;14.38;;;9.30;;
65271;SDS011;51868;48.812;8.198;2023-02-08T14:07:05;12.88;;;8.70;;
65271;SDS011;51868;48.812;8.198;2023-02-08T14:09:51;13.27;;;9.48;;
65271;SDS011;51868;48.812;8.198;2023-02-08T14:12:30;12.02;;;8.98;;
65271;SDS011;51868;48.812;8.198;2023-02-08T14:15:05;12.63;;;9.35;;
65271;SDS011;51868;48.812;8.198;2023-02-08T14:17:55;11.60;;;9.07;;
65271;SDS011;51868;48.812;8.198;2023-02-08T14:20:26;12.93;;;9.20;;
65271;SDS011;51868;48.812;8.198;2023-02-08T14:22:58;11.73;;;8.90;;
65271;SDS011;51868;48.812;8.198;2023-02-08T14:25:29;12.20;;;8.38;;
65271;SDS011;51868;48.812;8.198;2023-02-08T14:28:04;14.80;;;9.13;;
65271;SDS011;51868;48.812;8.198;2023-02-08T14:30:34;11.95;;;8.15;;
65271;SDS011;51868;48.812;8.198;2023-02-08T14:33:12;24.33;;;14.13;;
65271;SDS011;51868;48.812;8.198;2023-02-08T14:35:50;15.98;;;10.35;;
65271;SDS011;51868;48.812;8.198;2023-02-08T14:38:30;11.88;;;7.82;;
65271;SDS011;51868;48.812;8.198;2023-02-08T14:50:41;11.88;;;7.38;;
65271;SDS011;51868;48.812;8.198;2023-02-08T14:53:41;13.57;;;7.75;;
65271;SDS011;51868;48.812;8.198;2023-02-08T14:56:13;13.15;;;6.72;;
65271;SDS011;51868;48.812;8.198;2023-02-08T14:58:44;12.27;;;7.55;;
65271;SDS011;51868;48.812;8.198;2023-02-08T15:01:16;13.48;;;7.63;;
65271;SDS011;51868;48.812;8.198;2023-02-08T15:03:46;12.35;;;7.35;;
65271;SDS011;51868;48.812;8.198;2023-02-08T15:09:30;10.40;;;6.28;;
65271;SDS011;51868;48.812;8.198;2023-02-08T15:12:03;11.70;;;6.63;;
65271;SDS011;51868;48.812;8.198;2023-02-08T15:14:34;10.52;;;7.10;;
65271;SDS011;51868;48.812;8.198;2023-02-08T15:17:03;10.80;;;6.20;;
65271;SDS011;51868;48.812;8.198;2023-02-08T15:19:32;12.85;;;6.68;;
65271;SDS011;51868;48.812;8.198;2023-02-08T15:22:16;10.50;;;6.15;;
65271;SDS011;51868;48.812;8.198;2023-02-08T15:24:58;11.55;;;6.05;;
65271;SDS011;51868;48.812;8.198;2023-02-08T15:27:28;11.63;;;6.32;;
65271;SDS011;51868;48.812;8.198;2023-02-08T15:29:57;10.38;;;6.03;;
65271;SDS011;51868;48.812;8.198;2023-02-08T15:32:25;10.38;;;5.50;;
65271;SDS011;51868;48.812;8.198;2023-02-08T15:34:55;14.45;;;6.82;;
65271;SDS011;51868;48.812;8.198;2023-02-08T15:37:25;10.70;;;6.13;;
65271;SDS011;51868;48.812;8.198;2023-02-08T15:39:54;12.40;;;6.13;;
65271;SDS011;51868;48.812;8.198;2023-02-08T15:42:25;10.10;;;5.22;;